Time;durP1;ratioP1;P1;durP2;ratioP2;P2;SDS_P1;SDS_P2;PMS_P1;PMS_P2;Temp;Humidity;BMP_temperature;BMP_pressure;BME280_temperature;BME280_humidity;BME280_pressure;Samples;Min_cycle;Max_cycle;Signal;HPM_P1;HPM_P2
2023/12/15 00:00:59;;;;;;;42.17;22.05;;;5.50;99.90;;;;;;5010247;28;20467;-56
2023/12/15 00:03:25;;;;;;;40.67;21.83;;;5.50;99.90;;;;;;4996416;28;20077;-56
2023/12/15 00:05:50;;;;;;;43.88;22.52;;;5.50;99.90;;;;;;5013895;28;20053;-54
2023/12/15 00:08:16;;;;;;;38.63;20.90;;;5.40;99.90;;;;;;5014593;28;20080;-55
2023/12/15 00:10:42;;;;;;;39.40;21.20;;;5.50;99.90;;;;;;5013729;28;20118;-55
2023/12/15 00:13:07;;;;;;;45.28;22.60;;;5.50;99.90;;;;;;5018147;28;20510;-54
2023/12/15 00:15:33;;;;;;;45.22;22.83;;;5.50;99.90;;;;;;5021362;28;20553;-56
2023/12/15 00:17:59;;;;;;;44.92;22.98;;;5.60;99.90;;;;;;5014626;28;20041;-54
2023/12/15 00:20:25;;;;;;;44.80;23.48;;;5.50;99.90;;;;;;5014808;28;20045;-55
2023/12/15 00:22:50;;;;;;;47.17;24.15;;;5.60;99.90;;;;;;4993372;28;20056;-54
2023/12/15 00:25:16;;;;;;;46.17;23.80;;;5.60;99.90;;;;;;5023774;28;20041;-54
2023/12/15 00:27:42;;;;;;;44.58;23.17;;;5.60;99.90;;;;;;5012892;28;20258;-56
2023/12/15 00:30:07;;;;;;;48.90;23.42;;;5.60;99.90;;;;;;4987361;28;20527;-56
2023/12/15 00:32:33;;;;;;;48.55;23.98;;;5.60;99.90;;;;;;5020371;28;20041;-56
2023/12/15 00:34:59;;;;;;;41.72;22.83;;;5.60;99.90;;;;;;5019011;28;20049;-57
2023/12/15 00:37:27;;;;;;;46.47;24.20;;;5.60;99.90;;;;;;5002197;28;20049;-56
2023/12/15 00:39:53;;;;;;;43.70;23.88;;;5.60;99.90;;;;;;5018871;28;20051;-53
2023/12/15 00:42:18;;;;;;;41.30;22.55;;;5.70;99.90;;;;;;5019636;28;20580;-54
2023/12/15 00:44:45;;;;;;;46.70;24.38;;;5.70;99.90;;;;;;5001141;28;20044;-55
2023/12/15 00:47:10;;;;;;;45.33;23.67;;;5.70;99.90;;;;;;5019223;28;20053;-54
2023/12/15 00:49:36;;;;;;;47.08;23.63;;;5.70;99.90;;;;;;5007071;28;20526;-55
2023/12/15 00:52:02;;;;;;;44.28;24.17;;;5.70;99.90;;;;;;5015991;28;20046;-55
2023/12/15 00:54:28;;;;;;;45.05;23.38;;;5.70;99.90;;;;;;5020459;28;20056;-55
2023/12/15 00:56:53;;;;;;;44.42;24.35;;;5.70;99.90;;;;;;5014686;28;20047;-56
2023/12/15 00:59:19;;;;;;;45.20;24.27;;;5.80;99.90;;;;;;5007098;28;20045;-55
2023/12/15 01:01:45;;;;;;;44.35;24.33;;;5.80;99.90;;;;;;5019471;28;20407;-55
2023/12/15 01:04:10;;;;;;;51.70;25.02;;;5.80;99.90;;;;;;4984834;28;20103;-56
2023/12/15 01:06:36;;;;;;;51.95;24.63;;;5.80;99.90;;;;;;5010825;28;20067;-54
2023/12/15 01:09:03;;;;;;;56.90;26.10;;;5.80;99.90;;;;;;5016915;28;20054;-56
2023/12/15 01:11:28;;;;;;;56.50;26.58;;;5.80;99.90;;;;;;4999851;28;20041;-55
2023/12/15 01:13:54;;;;;;;54.30;25.23;;;5.90;99.90;;;;;;5008678;28;20045;-55
2023/12/15 01:16:20;;;;;;;60.05;25.95;;;5.90;99.90;;;;;;5006176;28;20080;-57
2023/12/15 01:18:45;;;;;;;59.25;28.13;;;5.90;99.90;;;;;;5019460;28;20102;-54
2023/12/15 01:21:11;;;;;;;52.88;26.65;;;5.90;99.90;;;;;;5017075;28;20095;-56
2023/12/15 01:23:37;;;;;;;63.13;27.35;;;5.90;99.90;;;;;;5015350;28;20056;-56
2023/12/15 01:26:04;;;;;;;54.63;27.77;;;5.90;99.90;;;;;;5012495;28;20075;-56
2023/12/15 01:28:30;;;;;;;53.63;26.98;;;5.90;99.90;;;;;;5001686;28;20076;-55
2023/12/15 01:30:55;;;;;;;68.45;29.00;;;5.90;99.90;;;;;;5012884;28;20383;-56
2023/12/15 01:33:21;;;;;;;61.55;29.55;;;6.00;99.90;;;;;;5013571;28;20056;-55
2023/12/15 01:35:47;;;;;;;61.72;28.90;;;5.90;99.90;;;;;;4986225;28;20699;-56
2023/12/15 01:38:13;;;;;;;62.20;29.15;;;6.00;99.90;;;;;;5015490;28;20115;-56
2023/12/15 01:40:39;;;;;;;65.05;29.73;;;6.00;99.90;;;;;;5020318;28;20083;-54
2023/12/15 01:43:04;;;;;;;68.53;28.23;;;6.00;99.90;;;;;;5021177;28;20094;-55
2023/12/15 01:45:30;;;;;;;68.13;29.42;;;6.00;99.90;;;;;;5019505;28;20049;-54
2023/12/15 01:47:56;;;;;;;71.22;29.83;;;6.00;99.90;;;;;;5015236;28;20067;-56
2023/12/15 01:50:22;;;;;;;67.25;31.20;;;6.00;99.90;;;;;;5018202;28;20076;-56
2023/12/15 01:52:47;;;;;;;75.70;31.80;;;6.00;99.90;;;;;;5017671;28;20048;-55
2023/12/15 01:55:13;;;;;;;71.95;30.27;;;6.00;99.90;;;;;;5011599;28;20664;-55
2023/12/15 01:57:39;;;;;;;68.22;31.15;;;6.10;99.90;;;;;;5016462;28;20048;-56
2023/12/15 02:00:06;;;;;;;69.68;31.33;;;6.10;99.90;;;;;;5003464;28;20038;-55
2023/12/15 02:02:35;;;;;;;78.03;32.20;;;6.10;99.90;;;;;;5012284;28;20103;-55
2023/12/15 02:05:04;;;;;;;80.78;31.83;;;6.10;99.90;;;;;;5013014;28;20061;-56
2023/12/15 02:07:30;;;;;;;72.47;31.35;;;6.10;99.90;;;;;;5004803;28;20504;-52
2023/12/15 02:09:58;;;;;;;76.32;31.30;;;6.10;99.90;;;;;;5029022;28;20110;-56
2023/12/15 02:12:24;;;;;;;77.55;31.63;;;6.20;99.90;;;;;;5023792;28;20575;-56
2023/12/15 02:14:49;;;;;;;80.50;31.00;;;6.20;99.90;;;;;;5025275;28;20997;-55
2023/12/15 02:17:15;;;;;;;79.80;30.98;;;6.20;99.90;;;;;;5028016;28;20048;-54
2023/12/15 02:19:41;;;;;;;70.28;31.20;;;6.20;99.90;;;;;;5028250;28;20041;-56
2023/12/15 02:22:07;;;;;;;75.15;30.63;;;6.20;99.90;;;;;;5023786;28;20045;-55
2023/12/15 02:24:33;;;;;;;73.38;31.05;;;6.20;99.90;;;;;;5028169;28;20052;-55
2023/12/15 02:26:58;;;;;;;88.35;33.00;;;6.30;99.90;;;;;;5023511;28;20090;-55
2023/12/15 02:29:26;;;;;;;77.72;31.58;;;6.30;99.90;;;;;;5022187;28;20041;-56
2023/12/15 02:31:52;;;;;;;69.40;30.73;;;6.30;99.90;;;;;;5016132;28;20068;-54
2023/12/15 02:34:18;;;;;;;74.82;31.17;;;6.30;99.90;;;;;;5005566;28;20041;-55
2023/12/15 02:36:44;;;;;;;81.95;31.35;;;6.30;99.90;;;;;;5025954;28;20045;-55
2023/12/15 02:39:09;;;;;;;72.70;31.42;;;6.30;99.90;;;;;;5021774;28;20041;-55
2023/12/15 02:41:35;;;;;;;65.75;28.80;;;6.30;99.90;;;;;;5023320;28;20073;-55
2023/12/15 02:44:01;;;;;;;70.07;30.25;;;6.30;99.90;;;;;;5004033;28;20067;-56
2023/12/15 02:46:27;;;;;;;72.30;29.83;;;6.30;99.90;;;;;;5019939;28;20052;-55
2023/12/15 02:48:52;;;;;;;71.72;31.02;;;6.30;99.90;;;;;;5019051;28;20110;-55
2023/12/15 02:51:28;;;;;;;81.32;30.25;;;6.30;99.90;;;;;;5018546;28;20048;-56
2023/12/15 02:53:54;;;;;;;78.70;30.10;;;6.30;99.90;;;;;;5020701;28;20123;-56
2023/12/15 02:56:20;;;;;;;75.78;30.85;;;6.30;99.90;;;;;;5003664;28;20447;-56
2023/12/15 02:58:46;;;;;;;72.72;28.98;;;6.40;99.90;;;;;;5016163;28;20056;-55
2023/12/15 03:01:11;;;;;;;74.72;29.02;;;6.30;99.90;;;;;;5002584;28;20552;-52
2023/12/15 03:03:37;;;;;;;72.85;29.38;;;6.30;99.90;;;;;;5017327;28;20063;-56
2023/12/15 03:06:03;;;;;;;62.45;28.77;;;6.30;99.90;;;;;;5013808;28;20065;-55
2023/12/15 03:08:29;;;;;;;67.80;28.35;;;6.30;99.90;;;;;;5018046;28;20111;-56
2023/12/15 03:10:57;;;;;;;64.75;29.40;;;6.30;99.90;;;;;;4986607;28;20418;-54
2023/12/15 03:13:24;;;;;;;67.00;28.42;;;6.30;99.90;;;;;;5004695;28;20055;-55
2023/12/15 03:15:50;;;;;;;67.43;27.63;;;6.30;99.90;;;;;;5017796;28;20060;-56
2023/12/15 03:18:16;;;;;;;61.30;27.60;;;6.30;99.90;;;;;;5011572;28;20409;-55
2023/12/15 03:20:41;;;;;;;55.72;27.02;;;6.20;99.90;;;;;;5030177;28;20041;-57
2023/12/15 03:23:08;;;;;;;57.65;26.23;;;6.20;99.90;;;;;;5022465;28;20788;-56
2023/12/15 03:25:34;;;;;;;59.78;26.83;;;6.10;99.90;;;;;;5022903;28;20040;-56
2023/12/15 03:28:00;;;;;;;55.70;25.65;;;6.10;99.90;;;;;;5029945;28;20488;-53
2023/12/15 03:30:26;;;;;;;57.92;26.02;;;6.00;99.90;;;;;;5028626;28;20051;-56
2023/12/15 03:32:51;;;;;;;51.42;25.45;;;6.00;99.90;;;;;;5025573;28;20663;-55
2023/12/15 03:35:18;;;;;;;48.53;24.50;;;6.00;99.90;;;;;;5025780;28;20049;-56
2023/12/15 03:37:46;;;;;;;56.53;25.33;;;5.90;99.90;;;;;;5010275;28;20162;-54
2023/12/15 03:40:12;;;;;;;47.53;24.80;;;5.90;99.90;;;;;;5026361;28;20452;-54
2023/12/15 03:42:38;;;;;;;48.13;25.58;;;5.80;99.90;;;;;;5023661;28;20107;-56
2023/12/15 03:45:04;;;;;;;58.72;25.85;;;5.80;99.90;;;;;;5027661;28;20331;-55
2023/12/15 03:47:31;;;;;;;51.35;25.30;;;5.70;99.90;;;;;;5023008;28;20080;-56
2023/12/15 03:49:57;;;;;;;50.03;25.02;;;5.80;99.90;;;;;;5022005;28;20238;-57
2023/12/15 03:52:23;;;;;;;45.70;25.15;;;5.70;99.90;;;;;;5023583;28;20052;-54
2023/12/15 03:54:49;;;;;;;44.65;24.70;;;5.70;99.90;;;;;;5026990;28;20040;-56
2023/12/15 03:57:15;;;;;;;54.00;26.20;;;5.70;99.90;;;;;;5022062;28;20606;-56
2023/12/15 03:59:40;;;;;;;54.72;26.60;;;5.60;99.90;;;;;;5020455;28;21947;-54
2023/12/15 04:02:11;;;;;;;57.30;25.98;;;5.60;99.90;;;;;;5017239;28;20077;-57
2023/12/15 04:04:37;;;;;;;53.78;25.77;;;5.60;99.90;;;;;;5021594;28;20079;-57
2023/12/15 04:07:03;;;;;;;54.63;26.45;;;5.60;99.90;;;;;;5025166;28;20057;-56
2023/12/15 04:09:29;;;;;;;50.08;23.65;;;5.70;99.90;;;;;;5021944;28;20049;-52
2023/12/15 04:11:55;;;;;;;49.50;24.65;;;5.60;99.90;;;;;;5024370;28;20053;-56
2023/12/15 04:14:21;;;;;;;52.35;25.05;;;5.60;99.90;;;;;;5020410;28;20586;-56
2023/12/15 04:16:47;;;;;;;53.50;24.77;;;5.60;99.90;;;;;;5000627;28;20053;-55
2023/12/15 04:19:12;;;;;;;55.08;25.02;;;5.60;99.90;;;;;;5019957;28;20040;-56
2023/12/15 04:21:38;;;;;;;52.20;24.73;;;5.60;99.90;;;;;;5009005;28;20049;-56
2023/12/15 04:24:04;;;;;;;47.78;24.13;;;5.50;99.90;;;;;;5019819;28;20045;-55
2023/12/15 04:26:30;;;;;;;52.40;23.15;;;5.50;99.90;;;;;;5018340;28;20596;-52
2023/12/15 04:28:56;;;;;;;44.22;22.55;;;5.50;99.90;;;;;;5009063;28;20041;-57
2023/12/15 04:31:21;;;;;;;51.95;22.70;;;5.50;99.90;;;;;;5015629;28;20049;-55
2023/12/15 04:33:47;;;;;;;48.70;23.30;;;5.50;99.90;;;;;;5025411;28;20048;-56
2023/12/15 04:36:13;;;;;;;53.88;24.00;;;5.40;99.90;;;;;;5032406;28;20470;-56
2023/12/15 04:38:39;;;;;;;44.95;22.33;;;5.40;99.90;;;;;;5032228;28;20475;-54
2023/12/15 04:41:04;;;;;;;51.05;23.65;;;5.40;99.90;;;;;;5035969;28;20116;-55
2023/12/15 04:43:30;;;;;;;46.95;22.65;;;5.40;99.90;;;;;;5033033;28;20041;-56
2023/12/15 04:45:56;;;;;;;55.50;23.23;;;5.40;99.90;;;;;;5019803;28;20045;-56
2023/12/15 04:48:22;;;;;;;52.25;22.33;;;5.40;99.90;;;;;;5030802;28;20052;-55
2023/12/15 04:50:49;;;;;;;44.70;21.20;;;5.50;99.90;;;;;;5029412;28;20571;-55
2023/12/15 04:53:15;;;;;;;46.63;22.02;;;5.50;99.90;;;;;;5032001;28;20369;-56
2023/12/15 04:55:41;;;;;;;48.25;20.52;;;5.40;99.90;;;;;;5029003;28;20085;-57
2023/12/15 04:58:07;;;;;;;56.67;21.30;;;5.50;99.90;;;;;;5028998;28;20037;-56
2023/12/15 05:00:32;;;;;;;46.22;21.27;;;5.50;99.90;;;;;;5027782;28;20045;-54
2023/12/15 05:02:59;;;;;;;48.03;19.90;;;5.40;99.90;;;;;;5026554;28;20091;-57
2023/12/15 05:05:25;;;;;;;50.35;20.10;;;5.40;99.90;;;;;;5028034;28;20507;-56
2023/12/15 05:07:52;;;;;;;45.20;18.50;;;5.40;99.90;;;;;;5023984;28;20065;-56
2023/12/15 05:10:18;;;;;;;42.88;19.98;;;5.40;99.90;;;;;;5024796;28;20048;-54
2023/12/15 05:12:43;;;;;;;48.83;18.73;;;5.40;99.90;;;;;;5023173;28;20041;-54
2023/12/15 05:15:09;;;;;;;44.25;19.65;;;5.40;99.90;;;;;;5027503;28;20037;-56
2023/12/15 05:17:35;;;;;;;43.80;19.13;;;5.40;99.90;;;;;;5018416;28;20540;-56
2023/12/15 05:20:02;;;;;;;47.20;18.95;;;5.40;99.90;;;;;;5003804;28;20041;-57
2023/12/15 05:22:28;;;;;;;44.42;18.60;;;5.40;99.90;;;;;;5016974;28;20620;-55
2023/12/15 05:24:53;;;;;;;44.95;18.10;;;5.40;99.90;;;;;;5019890;28;20072;-56
2023/12/15 05:27:19;;;;;;;42.55;18.90;;;5.30;99.90;;;;;;5016854;28;20091;-54
2023/12/15 05:29:46;;;;;;;50.97;18.40;;;5.30;99.90;;;;;;5004710;28;20057;-57
2023/12/15 05:32:12;;;;;;;40.75;17.25;;;5.30;99.90;;;;;;5015991;28;20540;-55
2023/12/15 05:34:38;;;;;;;41.15;17.45;;;5.30;99.90;;;;;;5019742;28;20041;-54
2023/12/15 05:37:05;;;;;;;39.17;16.90;;;5.30;99.90;;;;;;5015084;28;20096;-56
2023/12/15 05:39:30;;;;;;;42.63;16.73;;;5.30;99.90;;;;;;5010843;28;20037;-55
2023/12/15 05:41:56;;;;;;;52.70;18.08;;;5.30;99.90;;;;;;5004121;28;20813;-54
2023/12/15 05:44:21;;;;;;;42.85;17.65;;;5.30;99.90;;;;;;5008773;28;20074;-56
2023/12/15 05:46:48;;;;;;;41.67;17.40;;;5.30;99.90;;;;;;5025241;28;20044;-55
2023/12/15 05:49:14;;;;;;;42.42;16.73;;;5.30;99.90;;;;;;5024128;28;20045;-55
2023/12/15 05:51:45;;;;;;;42.70;16.27;;;5.20;99.90;;;;;;5026335;28;20271;-56
2023/12/15 05:54:11;;;;;;;42.75;16.27;;;5.20;99.90;;;;;;5025146;28;20044;-56
2023/12/15 05:56:37;;;;;;;43.40;15.98;;;5.20;99.90;;;;;;5020812;28;20676;-55
2023/12/15 05:59:02;;;;;;;46.78;16.38;;;5.20;99.90;;;;;;5024463;28;20048;-55
2023/12/15 06:01:28;;;;;;;41.92;15.57;;;5.20;99.90;;;;;;5021992;28;21053;-55
2023/12/15 06:03:54;;;;;;;49.63;14.88;;;5.10;99.90;;;;;;5035462;28;20040;-57
2023/12/15 06:06:19;;;;;;;43.15;15.63;;;5.20;99.90;;;;;;5019680;28;20852;-55
2023/12/15 06:08:45;;;;;;;38.83;16.00;;;5.20;99.90;;;;;;5023870;28;20175;-55
2023/12/15 06:11:11;;;;;;;44.63;15.30;;;5.20;99.90;;;;;;5029413;28;20051;-56
2023/12/15 06:13:39;;;;;;;39.58;14.38;;;5.20;99.90;;;;;;5006791;28;20047;-56
2023/12/15 06:16:05;;;;;;;42.55;14.70;;;5.20;99.90;;;;;;5029192;28;20505;-54
2023/12/15 06:18:31;;;;;;;42.55;15.20;;;5.20;99.90;;;;;;5026862;28;20550;-54
2023/12/15 06:20:56;;;;;;;45.75;15.05;;;5.20;99.90;;;;;;5024041;28;20044;-55
2023/12/15 06:23:22;;;;;;;48.90;14.40;;;5.20;99.90;;;;;;5026372;28;20480;-55
2023/12/15 06:25:48;;;;;;;42.67;14.75;;;5.30;99.90;;;;;;5026981;28;20642;-56
2023/12/15 06:28:13;;;;;;;45.28;16.17;;;5.20;99.90;;;;;;5022760;28;20041;-56
2023/12/15 06:30:39;;;;;;;46.25;14.40;;;5.20;99.90;;;;;;5004915;28;20037;-56
2023/12/15 06:33:06;;;;;;;42.08;14.23;;;5.20;99.90;;;;;;5019425;28;20044;-56
2023/12/15 06:35:32;;;;;;;49.20;14.90;;;5.30;99.90;;;;;;5020645;28;21994;-55
2023/12/15 06:37:57;;;;;;;43.13;14.73;;;5.20;99.90;;;;;;5009243;28;20497;-55
2023/12/15 06:40:23;;;;;;;41.15;13.93;;;5.20;99.90;;;;;;4994724;28;20041;-55
2023/12/15 06:42:49;;;;;;;51.70;14.70;;;5.20;99.90;;;;;;5020312;28;20607;-56
2023/12/15 06:45:15;;;;;;;44.10;14.73;;;5.20;99.90;;;;;;5018698;28;20041;-55
2023/12/15 06:47:40;;;;;;;44.33;13.98;;;5.20;99.90;;;;;;5023836;28;20045;-56
2023/12/15 06:50:07;;;;;;;43.15;13.98;;;5.20;99.90;;;;;;5020486;28;20583;-56
2023/12/15 06:52:34;;;;;;;38.80;13.70;;;5.10;99.90;;;;;;5019450;28;20037;-56
2023/12/15 06:55:00;;;;;;;46.78;14.30;;;5.10;99.90;;;;;;5025055;28;20049;-56
2023/12/15 06:57:26;;;;;;;37.65;12.93;;;5.10;99.90;;;;;;5020457;28;20049;-56
2023/12/15 06:59:52;;;;;;;38.40;13.65;;;5.10;99.90;;;;;;5027088;28;20128;-56
2023/12/15 07:02:18;;;;;;;45.53;13.85;;;5.00;99.90;;;;;;5034219;28;20041;-56
2023/12/15 07:04:43;;;;;;;47.50;13.50;;;5.20;99.90;;;;;;5036636;28;20055;-57
2023/12/15 07:07:10;;;;;;;38.08;12.75;;;5.00;99.90;;;;;;5041279;28;20335;-55
2023/12/15 07:09:35;;;;;;;37.60;11.80;;;5.10;99.90;;;;;;5043936;28;20100;-56
2023/12/15 07:12:02;;;;;;;38.25;11.60;;;5.00;99.90;;;;;;5008152;28;20048;-56
2023/12/15 07:14:31;;;;;;;42.35;12.52;;;5.00;99.90;;;;;;5018011;28;20084;-56
2023/12/15 07:16:57;;;;;;;34.60;12.98;;;5.00;99.90;;;;;;5031288;28;20295;-56
2023/12/15 07:19:22;;;;;;;38.80;12.38;;;4.90;99.90;;;;;;4989989;28;20623;-55
2023/12/15 07:21:48;;;;;;;36.58;11.02;;;4.90;99.90;;;;;;5021867;28;20114;-55
2023/12/15 07:24:14;;;;;;;48.03;11.80;;;4.90;99.90;;;;;;5022725;28;21915;-56
2023/12/15 07:26:40;;;;;;;38.88;11.15;;;4.80;99.90;;;;;;5021954;28;20551;-56
2023/12/15 07:29:06;;;;;;;41.45;11.38;;;4.80;99.90;;;;;;5020968;28;20890;-56
2023/12/15 07:31:32;;;;;;;37.83;11.85;;;4.80;99.90;;;;;;5027912;28;20049;-56
2023/12/15 07:33:57;;;;;;;33.65;10.57;;;4.70;99.90;;;;;;5027897;28;20649;-56
2023/12/15 07:36:23;;;;;;;48.00;10.27;;;4.70;99.90;;;;;;5024039;28;20046;-56
2023/12/15 07:38:49;;;;;;;35.97;10.38;;;4.70;99.90;;;;;;5008756;28;20047;-55
2023/12/15 07:41:15;;;;;;;37.22;10.60;;;4.80;99.90;;;;;;5015672;28;20068;-54
2023/12/15 07:43:40;;;;;;;30.38;10.18;;;4.80;99.90;;;;;;5023599;28;20049;-56
2023/12/15 07:46:16;;;;;;;32.58;10.63;;;4.80;99.90;;;;;;5017179;28;20147;-55
2023/12/15 07:48:42;;;;;;;38.40;10.38;;;4.80;99.90;;;;;;5026913;28;21287;-56
2023/12/15 07:51:19;;;;;;;43.58;10.10;;;4.70;99.90;;;;;;5033177;28;20047;-55
2023/12/15 07:53:46;;;;;;;38.63;10.05;;;4.80;99.90;;;;;;5023095;28;20128;-54
2023/12/15 07:56:23;;;;;;;39.92;10.40;;;4.80;99.90;;;;;;5030341;28;20045;-56
2023/12/15 07:58:51;;;;;;;49.15;10.35;;;4.80;99.90;;;;;;5026188;28;20387;-55
2023/12/15 08:01:19;;;;;;;46.20;10.20;;;4.90;99.90;;;;;;5024786;28;20041;-53
2023/12/15 08:03:45;;;;;;;38.38;9.82;;;4.90;99.90;;;;;;5023036;28;20045;-54
2023/12/15 08:06:15;;;;;;;41.28;9.40;;;5.00;99.90;;;;;;5033102;28;20405;-57
2023/12/15 08:08:42;;;;;;;43.88;10.20;;;5.00;99.90;;;;;;5026586;28;20056;-56
2023/12/15 08:11:09;;;;;;;44.47;9.73;;;5.00;99.90;;;;;;5006082;28;20052;-56
2023/12/15 08:13:36;;;;;;;41.50;9.57;;;5.10;99.90;;;;;;5022599;28;20130;-56
2023/12/15 08:16:03;;;;;;;36.42;8.55;;;5.10;99.90;;;;;;5025400;28;20045;-57
2023/12/15 08:18:29;;;;;;;46.45;9.45;;;5.10;99.90;;;;;;5028379;28;20577;-54
2023/12/15 08:20:55;;;;;;;46.15;9.32;;;5.20;99.90;;;;;;5004907;28;20044;-56
2023/12/15 08:23:21;;;;;;;41.00;9.65;;;5.30;99.90;;;;;;5023584;28;20544;-56
2023/12/15 08:25:47;;;;;;;43.28;8.90;;;5.20;99.90;;;;;;5024955;28;20047;-56
2023/12/15 08:28:13;;;;;;;48.47;9.98;;;5.30;99.90;;;;;;5024581;28;20049;-56
2023/12/15 08:30:39;;;;;;;38.17;8.90;;;5.30;99.90;;;;;;5015727;28;20415;-56
2023/12/15 08:33:05;;;;;;;37.22;8.95;;;5.30;99.90;;;;;;5006076;28;20048;-55
2023/12/15 08:35:31;;;;;;;43.15;9.23;;;5.40;99.90;;;;;;5025220;28;20111;-54
2023/12/15 08:37:57;;;;;;;52.58;9.65;;;5.40;99.90;;;;;;5026106;28;20076;-56
2023/12/15 08:40:23;;;;;;;43.97;9.65;;;5.40;99.90;;;;;;5032727;28;20619;-55
2023/12/15 08:42:49;;;;;;;28.48;8.15;;;5.30;99.90;;;;;;5037142;28;20070;-56
2023/12/15 08:45:15;;;;;;;44.78;9.25;;;5.40;99.90;;;;;;5038567;28;20974;-57
2023/12/15 08:47:41;;;;;;;48.15;9.68;;;5.50;99.90;;;;;;5035899;28;20072;-55
2023/12/15 08:50:07;;;;;;;38.90;8.15;;;5.50;99.90;;;;;;5033525;28;20143;-55
2023/12/15 08:52:33;;;;;;;48.45;9.63;;;5.40;99.90;;;;;;5033692;28;20047;-54
2023/12/15 08:54:59;;;;;;;41.92;8.93;;;5.50;99.90;;;;;;5031321;28;20033;-55
2023/12/15 08:57:24;;;;;;;35.50;8.23;;;5.50;99.90;;;;;;5030218;28;20587;-55
2023/12/15 08:59:51;;;;;;;49.20;8.32;;;5.50;99.90;;;;;;5031527;28;20052;-57
2023/12/15 09:02:16;;;;;;;43.53;8.40;;;5.50;99.90;;;;;;5029824;28;20334;-53
2023/12/15 09:04:42;;;;;;;41.60;9.45;;;5.60;99.90;;;;;;5028506;28;20527;-56
2023/12/15 09:07:08;;;;;;;32.05;8.75;;;5.60;99.90;;;;;;5009786;28;20485;-56
2023/12/15 09:09:38;;;;;;;31.95;8.32;;;5.60;99.90;;;;;;5026914;28;20555;-56
2023/12/15 09:12:05;;;;;;;38.55;8.90;;;5.60;99.90;;;;;;5026927;28;20036;-56
2023/12/15 09:14:30;;;;;;;53.53;9.93;;;5.70;99.90;;;;;;5037699;28;20094;-54
2023/12/15 09:16:57;;;;;;;40.72;8.50;;;5.70;99.90;;;;;;5040024;28;20448;-55
2023/12/15 09:19:25;;;;;;;45.40;9.77;;;5.70;99.90;;;;;;5017480;28;20044;-56
2023/12/15 09:21:51;;;;;;;45.22;9.10;;;5.70;99.90;;;;;;5018812;28;20040;-56
2023/12/15 09:24:17;;;;;;;42.38;9.07;;;5.70;99.90;;;;;;5034042;28;20408;-56
2023/12/15 09:26:46;;;;;;;46.88;8.30;;;5.70;99.90;;;;;;5034769;28;20229;-55
2023/12/15 09:29:13;;;;;;;45.90;8.60;;;5.80;99.90;;;;;;5031129;28;20048;-55
2023/12/15 09:31:39;;;;;;;36.70;8.48;;;5.80;99.90;;;;;;5030444;28;20123;-56
2023/12/15 09:34:05;;;;;;;39.00;8.60;;;5.80;99.90;;;;;;5040134;28;20357;-56
2023/12/15 09:36:31;;;;;;;48.05;8.23;;;5.90;99.90;;;;;;5029929;28;20046;-57
2023/12/15 09:38:57;;;;;;;44.70;8.90;;;5.90;99.90;;;;;;5033150;28;20064;-57
2023/12/15 09:41:23;;;;;;;40.08;7.38;;;6.00;99.90;;;;;;5033634;28;20528;-58
2023/12/15 09:43:50;;;;;;;48.72;8.93;;;6.00;99.90;;;;;;5001467;28;20634;-58
2023/12/15 09:46:16;;;;;;;53.13;8.43;;;6.00;99.90;;;;;;5039917;28;20048;-59
2023/12/15 09:48:44;;;;;;;37.40;7.97;;;6.00;99.90;;;;;;5042200;28;20443;-58
2023/12/15 09:51:22;;;;;;;37.55;7.90;;;6.10;99.90;;;;;;5041279;28;20098;-57
2023/12/15 09:53:49;;;;;;;39.30;8.38;;;6.20;99.90;;;;;;5044482;28;20392;-59
2023/12/15 09:56:16;;;;;;;55.53;8.27;;;6.20;99.90;;;;;;5043381;28;20477;-58
2023/12/15 09:58:42;;;;;;;35.60;7.90;;;6.30;99.90;;;;;;5043631;28;20505;-58
2023/12/15 10:01:11;;;;;;;45.83;8.10;;;6.30;99.90;;;;;;5027157;28;20033;-59
2023/12/15 10:03:38;;;;;;;39.72;8.48;;;6.30;99.90;;;;;;5024555;28;20559;-59
2023/12/15 10:06:04;;;;;;;42.95;8.38;;;6.30;99.90;;;;;;5038687;28;20445;-58
2023/12/15 10:08:40;;;;;;;41.78;8.13;;;6.40;99.90;;;;;;5011199;28;20103;-58
2023/12/15 10:11:07;;;;;;;37.17;8.75;;;6.50;99.90;;;;;;4996448;28;20042;-58
2023/12/15 10:13:33;;;;;;;42.15;8.13;;;6.60;99.90;;;;;;4982616;28;20378;-58
2023/12/15 10:15:58;;;;;;;41.10;7.93;;;6.50;99.90;;;;;;5013738;28;20032;-58
2023/12/15 10:18:24;;;;;;;48.05;9.00;;;6.60;99.90;;;;;;4999184;28;20045;-58
2023/12/15 10:20:50;;;;;;;40.20;8.10;;;6.60;99.90;;;;;;5007339;28;20044;-58
2023/12/15 10:23:24;;;;;;;42.90;8.43;;;6.70;99.90;;;;;;5010625;28;20052;-59
2023/12/15 10:25:53;;;;;;;52.45;8.15;;;6.70;99.90;;;;;;4990925;28;20049;-58
2023/12/15 10:28:20;;;;;;;44.13;7.57;;;6.70;99.90;;;;;;5008490;28;21301;-58
2023/12/15 10:30:48;;;;;;;49.80;8.57;;;6.70;99.90;;;;;;5009218;28;20053;-58
2023/12/15 10:33:17;;;;;;;45.83;7.88;;;6.80;99.90;;;;;;5009899;28;20041;-59
2023/12/15 10:35:46;;;;;;;37.50;8.57;;;6.80;99.90;;;;;;5008805;28;20367;-59
2023/12/15 10:38:12;;;;;;;39.05;7.72;;;6.90;99.90;;;;;;5010556;28;20068;-59
2023/12/15 10:40:37;;;;;;;55.20;8.95;;;6.90;99.90;;;;;;5010749;28;20041;-58
2023/12/15 10:43:04;;;;;;;47.05;8.10;;;6.90;99.90;;;;;;5012694;28;20440;-59
2023/12/15 10:45:32;;;;;;;41.00;7.78;;;7.00;99.90;;;;;;4999990;28;20045;-58
2023/12/15 10:48:00;;;;;;;46.10;8.10;;;7.00;99.90;;;;;;5012763;28;20087;-59
2023/12/15 10:50:27;;;;;;;46.00;8.57;;;7.00;99.90;;;;;;5010862;28;20486;-58
2023/12/15 10:52:55;;;;;;;43.03;7.63;;;7.10;99.90;;;;;;5007996;28;20105;-59
2023/12/15 10:55:25;;;;;;;45.30;8.23;;;7.10;99.90;;;;;;5007984;28;20918;-58
2023/12/15 10:57:51;;;;;;;37.75;7.20;;;7.20;99.90;;;;;;4987865;28;20137;-58
2023/12/15 11:00:19;;;;;;;44.40;7.05;;;7.20;99.90;;;;;;4988079;28;20520;-59
2023/12/15 11:02:46;;;;;;;45.95;8.60;;;7.20;99.90;;;;;;5004202;28;20041;-57
2023/12/15 11:05:12;;;;;;;42.55;8.85;;;7.30;99.90;;;;;;5007884;28;20470;-58
2023/12/15 11:07:40;;;;;;;51.60;8.85;;;7.30;99.90;;;;;;5022594;28;20125;-57
2023/12/15 11:10:09;;;;;;;41.00;7.93;;;7.30;99.90;;;;;;5044596;28;20053;-57
2023/12/15 11:12:40;;;;;;;46.58;8.98;;;7.40;99.90;;;;;;5031936;28;20918;-59
2023/12/15 11:15:10;;;;;;;40.60;8.30;;;7.40;99.90;;;;;;5022416;28;20045;-59
2023/12/15 11:17:57;;;;;;;44.38;8.45;;;7.50;99.90;;;;;;5023959;28;20131;-57
2023/12/15 11:20:24;;;;;;;38.72;7.97;;;7.50;99.90;;;;;;5042038;28;20576;-59
2023/12/15 11:22:56;;;;;;;36.83;8.52;;;7.50;99.90;;;;;;5021811;28;20587;-58
2023/12/15 11:25:29;;;;;;;46.72;8.68;;;7.60;99.90;;;;;;5013377;28;20196;-58
2023/12/15 11:28:07;;;;;;;47.17;9.60;;;7.60;99.90;;;;;;5029895;28;20037;-59
2023/12/15 11:30:41;;;;;;;39.28;8.27;;;7.70;99.90;;;;;;5034197;28;20047;-58
2023/12/15 11:33:40;;;;;;;46.92;8.07;;;7.80;99.90;;;;;;5028835;28;20049;-58
2023/12/15 11:36:13;;;;;;;46.95;9.45;;;7.90;99.90;;;;;;5030929;28;20305;-58
2023/12/15 11:38:39;;;;;;;41.00;7.50;;;7.90;99.90;;;;;;5031326;28;20052;-57
2023/12/15 11:41:06;;;;;;;57.60;9.23;;;8.00;99.90;;;;;;5013645;28;20037;-58
2023/12/15 11:43:36;;;;;;;42.90;8.63;;;8.00;99.90;;;;;;5028604;28;20036;-59
2023/12/15 11:46:03;;;;;;;39.72;7.88;;;8.00;99.90;;;;;;5040286;28;20063;-58
2023/12/15 11:48:29;;;;;;;37.08;7.57;;;8.00;99.90;;;;;;5032070;28;20053;-59
2023/12/15 11:50:56;;;;;;;38.72;7.40;;;8.10;99.90;;;;;;5030106;28;20042;-59
2023/12/15 11:53:22;;;;;;;40.85;7.90;;;8.10;99.90;;;;;;5032936;28;20791;-59
2023/12/15 11:55:49;;;;;;;43.45;7.68;;;8.10;99.90;;;;;;5007891;28;20366;-59
2023/12/15 11:58:15;;;;;;;37.67;7.20;;;8.10;99.90;;;;;;5024374;28;20040;-59
2023/12/15 12:00:42;;;;;;;48.35;8.52;;;8.20;99.90;;;;;;5035208;28;20038;-59
2023/12/15 12:03:12;;;;;;;46.97;9.50;;;8.10;99.90;;;;;;5035123;28;20041;-59
2023/12/15 12:05:39;;;;;;;42.20;9.00;;;8.20;99.90;;;;;;5034406;28;20477;-59
2023/12/15 12:08:05;;;;;;;46.17;8.60;;;8.20;99.90;;;;;;5034557;28;20195;-59
2023/12/15 12:10:31;;;;;;;46.47;9.40;;;8.30;99.90;;;;;;5009899;28;20040;-58
2023/12/15 12:13:00;;;;;;;52.67;9.25;;;8.30;99.90;;;;;;5025308;28;20041;-58
2023/12/15 12:15:27;;;;;;;39.28;9.05;;;8.40;99.90;;;;;;5031355;28;20052;-59
2023/12/15 12:17:53;;;;;;;43.83;8.68;;;8.40;99.90;;;;;;5012387;28;21127;-58
2023/12/15 12:20:29;;;;;;;40.95;8.30;;;8.40;99.90;;;;;;5099746;27;20124;-58
2023/12/15 12:22:56;;;;;;;56.85;9.70;;;8.40;99.90;;;;;;5095638;28;20052;-59
2023/12/15 12:25:22;;;;;;;47.35;8.77;;;8.40;99.90;;;;;;5097220;28;20096;-59
2023/12/15 12:27:50;;;;;;;43.50;8.75;;;8.40;99.90;;;;;;5096903;28;20515;-57
2023/12/15 12:30:17;;;;;;;46.72;8.13;;;8.40;99.90;;;;;;5089238;28;20127;-59
2023/12/15 12:32:47;;;;;;;46.47;8.70;;;8.40;99.90;;;;;;5093257;28;20048;-59
2023/12/15 12:35:12;;;;;;;38.83;8.45;;;8.40;99.90;;;;;;5097303;28;20590;-59
2023/12/15 12:37:38;;;;;;;43.78;8.38;;;8.40;99.90;;;;;;5097777;28;20571;-59